| time (UTC) | temp F | wind direction | speed MPH | gust MPH | rain 1hr in | rain 24hr in | rain mn in | humidity % | barometer mb |
| 20260505061534 | 45 | 153 | 18.0 | 31.0 | 0.00 | 0.00 | 0.00 | 76 | 1005.0 |
| 20260505060025 | 46 | 162 | 15.0 | 32.0 | 0.00 | 0.00 | 0.00 | 76 | 1004.5 |
| 20260505054535 | 46 | 193 | 13.0 | 24.0 | 0.00 | 0.00 | 0.00 | 76 | 1004.3 |
| 20260505053021 | 46 | 289 | 12.0 | 27.0 | 0.00 | 0.00 | 0.00 | 75 | 1004.4 |
| 20260505051534 | 46 | 226 | 9.0 | 29.0 | 0.00 | 0.00 | 0.00 | 75 | 1004.4 |
| 20260505041512 | 47 | 135 | 14.0 | 34.0 | 0.00 | 0.00 | 0.00 | 75 | 1003.6 |
| 20260505040009 | 47 | 212 | 12.0 | 31.0 | 0.00 | 0.00 | 0.00 | 76 | 1003.6 |
| 20260505034507 | 47 | 165 | 14.0 | 29.0 | 0.00 | 0.00 | 0.00 | 75 | 1003.3 |
| 20260505033004 | 47 | 188 | 14.0 | 31.0 | 0.00 | 0.00 | 0.00 | 74 | 1002.9 |
| 20260505031503 | 48 | 117 | 16.0 | 34.0 | 0.00 | 0.00 | 0.00 | 73 | 1002.8 |
| 20260505030106 | 48 | 229 | 15.0 | 26.0 | 0.00 | 0.00 | 0.00 | 73 | 1002.7 |
| 20260505024612 | 48 | 115 | 12.0 | 27.0 | 0.00 | 0.00 | 0.00 | 72 | 1002.7 |
| 20260505023059 | 48 | 182 | 12.0 | 32.0 | 0.00 | 0.00 | 0.00 | 70 | 1002.5 |
| 20260505021557 | 49 | 201 | 11.0 | 34.0 | 0.00 | 0.00 | 0.00 | 68 | 1002.1 |
| 20260505014549 | 49 | 193 | 12.0 | 28.0 | 0.00 | 0.00 | 0.00 | 65 | 1001.6 |
| 20260505013048 | 49 | 151 | 15.0 | 29.0 | 0.00 | 0.00 | 0.00 | 65 | 1001.5 |
| 20260505011547 | 49 | 248 | 12.0 | 29.0 | 0.00 | 0.00 | 0.00 | 65 | 1001.5 |
| 20260505010105 | 48 | 199 | 13.0 | 31.0 | 0.00 | 0.00 | 0.00 | 65 | 1001.5 |
| 20260505004546 | 46 | 188 | 10.0 | 19.0 | 0.00 | 0.00 | 0.00 | 67 | 1001.4 |
| 20260505003049 | 46 | 228 | 5.0 | 23.0 | 0.00 | 0.00 | 0.00 | 67 | 1001.5 |
| 20260505001543 | 46 | 235 | 7.0 | 21.0 | 0.00 | 0.00 | 0.00 | 62 | 1001.3 |
| 20260505000046 | 48 | 182 | 9.0 | 26.0 | 0.00 | 0.00 | 0.00 | 58 | 1000.9 |
| 20260504234539 | 48 | 254 | 11.0 | 21.0 | 0.00 | 0.00 | 0.00 | 58 | 1000.5 |
| 20260504233045 | 47 | 181 | 14.0 | 28.0 | 0.00 | 0.00 | 0.00 | 61 | 1000.5 |
| 20260504231537 | 48 | 146 | 12.0 | 28.0 | 0.00 | 0.00 | 0.00 | 61 | 1000.3 |
| 20260504230034 | 48 | 205 | 14.0 | 34.0 | 0.00 | 0.00 | 0.00 | 60 | 999.9 |
| 20260504224536 | 49 | 229 | 14.0 | 35.0 | 0.00 | 0.00 | 0.00 | 59 | 999.7 |
| 20260504223033 | 48 | 156 | 19.0 | 32.0 | 0.00 | 0.00 | 0.00 | 60 | 999.5 |
| 20260504221532 | 49 | 176 | 14.0 | 29.0 | 0.00 | 0.00 | 0.00 | 60 | 999.6 |
| 20260504220031 | 49 | 140 | 17.0 | 29.0 | 0.00 | 0.00 | 0.00 | 61 | 999.1 |
| 20260504214630 | 50 | 169 | 11.0 | 28.0 | 0.00 | 0.00 | 0.00 | 60 | 999.6 |
| 20260504213029 | 50 | 110 | 17.0 | 31.0 | 0.00 | 0.00 | 0.00 | 59 | 999.2 |
| 20260504211523 | 49 | 200 | 18.0 | 38.0 | 0.00 | 0.00 | 0.00 | 62 | 998.7 |
| 20260504210022 | 49 | 205 | 18.0 | 41.0 | 0.00 | 0.00 | 0.00 | 62 | 999.0 |
| 20260504204521 | 49 | 209 | 17.0 | 35.0 | 0.00 | 0.00 | 0.00 | 63 | 998.6 |
| 20260504203020 | 48 | 182 | 18.0 | 34.0 | 0.00 | 0.00 | 0.00 | 63 | 998.5 |
| 20260504201516 | 48 | 136 | 19.0 | 41.0 | 0.00 | 0.00 | 0.00 | 65 | 997.9 |
| 20260504200018 | 47 | 169 | 18.0 | 42.0 | 0.00 | 0.00 | 0.00 | 67 | 998.1 |
| 20260504194513 | 47 | 152 | 19.0 | 42.0 | 0.00 | 0.00 | 0.00 | 69 | 997.2 |
| 20260504193008 | 46 | 138 | 18.0 | 40.0 | 0.00 | 0.00 | 0.00 | 70 | 996.6 |
| 20260504191505 | 46 | 178 | 25.0 | 42.0 | 0.00 | 0.00 | 0.00 | 71 | 996.6 |
| 20260504190004 | 46 | 180 | 21.0 | 38.0 | 0.00 | 0.00 | 0.00 | 72 | 995.9 |
| 20260504184601 | 45 | 214 | 23.0 | 52.0 | 0.00 | 0.00 | 0.00 | 72 | 995.9 |
| 20260504183056 | 44 | 171 | 23.0 | 46.0 | 0.00 | 0.00 | 0.00 | 74 | 995.4 |
| 20260504181553 | 44 | 115 | 26.0 | 42.0 | 0.00 | 0.00 | 0.00 | 76 | 995.1 |
| 20260504180050 | 43 | 140 | 23.0 | 48.0 | 0.00 | 0.00 | 0.00 | 78 | 995.2 |
| 20260504174553 | 43 | 202 | 21.0 | 57.0 | 0.00 | 0.00 | 0.00 | 79 | 994.8 |
| 20260504173044 | 42 | 188 | 26.0 | 46.0 | 0.00 | 0.00 | 0.00 | 81 | 995.1 |
| 20260504171541 | 41 | 186 | 25.0 | 47.0 | 0.00 | 0.00 | 0.00 | 83 | 995.2 |
| 20260504120129 | 36 | 190 | 8.0 | 25.0 | 0.00 | 0.00 | 0.00 | 91 | 984.7 |
| 20260504081527 | 36 | 228 | 6.0 | 18.0 | 0.00 | 0.00 | 0.00 | 93 | 974.9 |